ADDS METAR Data INFO
IDs: Format: Raw Decoded Include TAF

Data at: 1212 UTC 24 Mar 2017

METAR for:ELLX (Luxembourg/Findel Ar, --, BX)
Text:ELLX 241150Z 05016KT 8000 BKN021 10/05 Q1025 NOSIG
Temperature: 10.0°C ( 50°F)
Dewpoint: 5.0°C ( 41°F) [RH = 71%]
Pressure (altimeter):30.27 inches Hg (1025.0 mb)
Winds:from the NE (50 degrees) at 18 MPH (16 knots; 8.2 m/s)
Visibility: 5 sm ( 8 km)
Ceiling:2100 feet AGL
Clouds: broken clouds at 2100 feet AGL

TAF for:ELLX (Luxembourg/Findel Ar, --, BX) issued at 1100 UTC 24 Mar 2017
Text:TAF COR ELLX 241100Z 2412/2518 06010G20KT 9999 BKN020
Forecast period:1200 UTC 24 March 2017 to 0600 UTC 25 March 2017
Forecast type:FROM: standard forecast or significant change
Winds:from the ENE (60 degrees) at 12 MPH (10 knots; 5.1 m/s) gusting to 23 MPH (20 knots; 10.3 m/s)
Visibility:6 or more sm (10+ km)
Ceiling:2000 feet AGL
Clouds: broken clouds at 2000 feet AGL
Text:BECMG 2506/2509 06015G25KT
Forecast period:0600 to 1800 UTC 25 March 2017
Forecast type:BECOMING: Conditions expected to become as follows by 0900 UTC 25 March 2017
Winds:from the ENE (60 degrees) at 17 MPH (15 knots; 7.7 m/s) gusting to 29 MPH (25 knots; 12.9 m/s)
Visibility:6 or more sm (10+ km)
Ceiling:2000 feet AGL
Clouds: broken clouds at 2000 feet AGL


Page loaded:  12:12 UTC  |   05:12 AM Pacific  |   06:12 AM Mountain  |   07:12 AM Central  |   08:12 AM Eastern

 

ADVISORIES

FORECASTS

FORECASTS

OBSERVATIONS

USER TOOLS

ABOUT US